Time;durP1;ratioP1;P1;durP2;ratioP2;P2;SDS_P1;SDS_P2;PMS_P1;PMS_P2;Temp;Humidity;BMP_temperature;BMP_pressure;BME280_temperature;BME280_humidity;BME280_pressure;Samples;Min_cycle;Max_cycle;Signal;HPM_P1;HPM_P2
2023/05/04 00:00:35;;;;;;;0.00;0.00;;;;;;;;;;1737154;28;20239;-74
2023/05/04 00:01:26;;;;;;;0.10;0.10;;;;;;;;;;1737874;28;20295;-74
2023/05/04 00:02:18;;;;;;;0.00;0.00;;;;;;;;;;1737220;28;20505;-74
2023/05/04 00:03:09;;;;;;;0.00;0.00;;;;;;;;;;1735222;28;20292;-74
2023/05/04 00:04:01;;;;;;;0.00;0.00;;;;;;;;;;1743000;28;20206;-74
2023/05/04 00:04:52;;;;;;;0.10;0.10;;;;;;;;;;1741244;28;20668;-74
2023/05/04 00:05:44;;;;;;;0.00;0.00;;;;;;;;;;1737239;28;20235;-74
2023/05/04 00:06:35;;;;;;;0.10;0.10;;;;;;;;;;1743709;28;20274;-75
2023/05/04 00:07:27;;;;;;;0.10;0.10;;;;;;;;;;1739124;28;20203;-75
2023/05/04 00:08:18;;;;;;;0.00;0.00;;;;;;;;;;1738473;28;20258;-74
2023/05/04 00:09:13;;;;;;;0.10;0.10;;;;;;;;;;1735130;28;20212;-74
2023/05/04 00:10:05;;;;;;;0.10;0.10;;;;;;;;;;1738210;28;20204;-74
2023/05/04 00:10:57;;;;;;;0.00;0.00;;;;;;;;;;1736629;28;20257;-74
2023/05/04 00:11:48;;;;;;;0.00;0.00;;;;;;;;;;1738671;28;20630;-74
2023/05/04 00:12:41;;;;;;;0.17;0.17;;;;;;;;;;1738687;28;20234;-74
2023/05/04 00:13:33;;;;;;;0.00;0.00;;;;;;;;;;1738697;28;20203;-74
2023/05/04 00:14:25;;;;;;;0.00;0.00;;;;;;;;;;1738192;28;20219;-74
2023/05/04 00:15:16;;;;;;;0.10;0.10;;;;;;;;;;1737472;28;20615;-74
2023/05/04 00:16:08;;;;;;;0.05;0.05;;;;;;;;;;1737201;28;20208;-74
2023/05/04 00:17:00;;;;;;;0.10;0.10;;;;;;;;;;1740697;28;20644;-74
2023/05/04 00:17:53;;;;;;;0.08;0.08;;;;;;;;;;1736669;28;20207;-74
2023/05/04 00:18:44;;;;;;;0.08;0.08;;;;;;;;;;1737197;28;20234;-74
2023/05/04 00:19:39;;;;;;;0.00;0.00;;;;;;;;;;1738634;28;20207;-74
2023/05/04 00:20:30;;;;;;;0.00;0.00;;;;;;;;;;1736441;28;20246;-74
2023/05/04 00:21:22;;;;;;;0.10;0.10;;;;;;;;;;1741209;28;20641;-74
2023/05/04 00:22:13;;;;;;;0.00;0.00;;;;;;;;;;1736511;28;20455;-74
2023/05/04 00:23:05;;;;;;;0.00;0.00;;;;;;;;;;1736066;28;20208;-74
2023/05/04 00:23:56;;;;;;;0.08;0.08;;;;;;;;;;1739560;28;20210;-74
2023/05/04 00:24:48;;;;;;;0.00;0.00;;;;;;;;;;1735735;28;20203;-74
2023/05/04 00:25:39;;;;;;;0.00;0.00;;;;;;;;;;1737510;28;20242;-74
2023/05/04 00:26:31;;;;;;;0.00;0.00;;;;;;;;;;1737930;28;20246;-74
2023/05/04 00:27:22;;;;;;;0.00;0.00;;;;;;;;;;1733084;28;20269;-74
2023/05/04 00:28:14;;;;;;;0.00;0.00;;;;;;;;;;1738763;28;20200;-74
2023/05/04 00:29:06;;;;;;;0.00;0.00;;;;;;;;;;1742512;28;20215;-75
2023/05/04 00:29:58;;;;;;;0.00;0.00;;;;;;;;;;1737707;28;20207;-75
2023/05/04 00:30:49;;;;;;;0.00;0.00;;;;;;;;;;1736465;28;20247;-74
2023/05/04 00:31:41;;;;;;;0.00;0.00;;;;;;;;;;1740724;28;20234;-74
2023/05/04 00:32:32;;;;;;;0.00;0.00;;;;;;;;;;1732545;28;20659;-75
2023/05/04 00:33:25;;;;;;;0.00;0.00;;;;;;;;;;1740857;28;20668;-75
2023/05/04 00:34:16;;;;;;;0.10;0.10;;;;;;;;;;1737168;28;20212;-75
2023/05/04 00:35:08;;;;;;;0.00;0.00;;;;;;;;;;1740646;28;20203;-74
2023/05/04 00:35:59;;;;;;;0.03;0.03;;;;;;;;;;1741308;28;20291;-74
2023/05/04 00:36:51;;;;;;;0.00;0.00;;;;;;;;;;1740475;28;20210;-74
2023/05/04 00:37:42;;;;;;;0.00;0.00;;;;;;;;;;1738056;28;20216;-74
2023/05/04 00:38:46;;;;;;;0.00;0.00;;;;;;;;;;1742425;28;20646;-74
2023/05/04 00:39:37;;;;;;;0.00;0.00;;;;;;;;;;1736066;28;20210;-74
2023/05/04 00:40:29;;;;;;;0.00;0.00;;;;;;;;;;1736463;28;20337;-74
2023/05/04 00:41:21;;;;;;;0.00;0.00;;;;;;;;;;1737275;28;20292;-74
2023/05/04 00:42:13;;;;;;;0.10;0.10;;;;;;;;;;1740832;28;20269;-75
2023/05/04 00:43:04;;;;;;;0.10;0.10;;;;;;;;;;1737970;28;21375;-75
2023/05/04 00:43:58;;;;;;;0.00;0.00;;;;;;;;;;1736639;28;20261;-74
2023/05/04 00:44:50;;;;;;;0.00;0.00;;;;;;;;;;1736551;28;20207;-74
2023/05/04 00:45:42;;;;;;;0.00;0.00;;;;;;;;;;1736900;28;20265;-74
2023/05/04 00:46:34;;;;;;;0.00;0.00;;;;;;;;;;1738346;28;20931;-75
2023/05/04 00:47:26;;;;;;;0.00;0.00;;;;;;;;;;1738440;28;20199;-76
2023/05/04 00:48:17;;;;;;;0.10;0.10;;;;;;;;;;1739228;28;20239;-76
2023/05/04 00:49:09;;;;;;;0.10;0.10;;;;;;;;;;1741622;28;20656;-74
2023/05/04 00:50:01;;;;;;;0.10;0.10;;;;;;;;;;1738111;28;20608;-75
2023/05/04 00:50:53;;;;;;;0.00;0.00;;;;;;;;;;1736652;28;20549;-74
2023/05/04 00:51:46;;;;;;;0.00;0.00;;;;;;;;;;1737792;28;20545;-74
2023/05/04 00:52:39;;;;;;;0.03;0.03;;;;;;;;;;1733174;28;20488;-74
2023/05/04 00:53:30;;;;;;;0.05;0.05;;;;;;;;;;1741122;28;20271;-74
2023/05/04 00:54:22;;;;;;;0.10;0.10;;;;;;;;;;1737940;28;20206;-74
2023/05/04 00:55:13;;;;;;;0.00;0.00;;;;;;;;;;1736447;28;20203;-74
2023/05/04 00:56:06;;;;;;;0.10;0.10;;;;;;;;;;1737682;28;20211;-74
2023/05/04 00:56:57;;;;;;;0.00;0.00;;;;;;;;;;1738575;28;20202;-74
2023/05/04 00:57:50;;;;;;;0.03;0.03;;;;;;;;;;1734090;28;20626;-74
2023/05/04 00:58:41;;;;;;;0.10;0.10;;;;;;;;;;1739055;28;20257;-74
2023/05/04 00:59:33;;;;;;;0.10;0.10;;;;;;;;;;1738230;28;20237;-75
2023/05/04 01:00:26;;;;;;;0.00;0.00;;;;;;;;;;1736622;28;20204;-75
2023/05/04 01:01:17;;;;;;;0.00;0.00;;;;;;;;;;1737569;28;20203;-75
2023/05/04 01:02:09;;;;;;;0.00;0.00;;;;;;;;;;1738168;28;20215;-75
2023/05/04 01:03:00;;;;;;;0.05;0.05;;;;;;;;;;1738059;28;20299;-75
2023/05/04 01:03:52;;;;;;;0.00;0.00;;;;;;;;;;1742106;28;20293;-75
2023/05/04 01:04:43;;;;;;;0.10;0.10;;;;;;;;;;1736355;28;20208;-75
2023/05/04 01:05:36;;;;;;;0.00;0.00;;;;;;;;;;1737375;28;20227;-75
2023/05/04 01:06:31;;;;;;;0.00;0.00;;;;;;;;;;1737611;28;20200;-75
2023/05/04 01:07:27;;;;;;;0.00;0.00;;;;;;;;;;1738650;28;20268;-75
2023/05/04 01:08:19;;;;;;;0.10;0.10;;;;;;;;;;1738087;28;20511;-75
2023/05/04 01:09:15;;;;;;;0.13;0.13;;;;;;;;;;1738414;28;20555;-75
2023/05/04 01:10:09;;;;;;;0.10;0.10;;;;;;;;;;1738456;28;20200;-75
2023/05/04 01:11:04;;;;;;;0.10;0.10;;;;;;;;;;1735459;28;20222;-74
2023/05/04 01:11:57;;;;;;;0.00;0.00;;;;;;;;;;1731798;28;20209;-74
2023/05/04 01:12:52;;;;;;;0.00;0.00;;;;;;;;;;1730378;28;20581;-74
2023/05/04 01:13:43;;;;;;;0.00;0.00;;;;;;;;;;1729867;28;20381;-74
2023/05/04 01:14:36;;;;;;;0.10;0.10;;;;;;;;;;1729630;28;20200;-74
2023/05/04 01:15:29;;;;;;;0.10;0.10;;;;;;;;;;1725357;28;20819;-74
2023/05/04 01:16:21;;;;;;;0.00;0.00;;;;;;;;;;1730628;28;20219;-74
2023/05/04 01:17:12;;;;;;;0.00;0.00;;;;;;;;;;1730845;28;20269;-74
2023/05/04 01:18:04;;;;;;;0.00;0.00;;;;;;;;;;1732764;28;20617;-74
2023/05/04 01:18:55;;;;;;;0.10;0.10;;;;;;;;;;1726153;28;20212;-74
2023/05/04 01:19:49;;;;;;;0.03;0.03;;;;;;;;;;1733414;28;20238;-74
2023/05/04 01:20:40;;;;;;;0.10;0.10;;;;;;;;;;1731713;28;20304;-74
2023/05/04 01:21:34;;;;;;;0.00;0.00;;;;;;;;;;1735654;28;20203;-74
2023/05/04 01:22:25;;;;;;;0.00;0.00;;;;;;;;;;1731765;28;20280;-74
2023/05/04 01:23:17;;;;;;;0.00;0.00;;;;;;;;;;1729731;28;20538;-74
2023/05/04 01:24:08;;;;;;;0.10;0.10;;;;;;;;;;1729376;28;20603;-74
2023/05/04 01:25:06;;;;;;;0.00;0.00;;;;;;;;;;1728788;28;20226;-74
2023/05/04 01:26:00;;;;;;;0.00;0.00;;;;;;;;;;1730620;28;20266;-74
2023/05/04 01:26:54;;;;;;;0.00;0.00;;;;;;;;;;1726016;28;20205;-74
2023/05/04 01:27:47;;;;;;;0.00;0.00;;;;;;;;;;1727514;28;20274;-74
2023/05/04 01:28:41;;;;;;;0.00;0.00;;;;;;;;;;1733177;28;20220;-74
2023/05/04 01:29:38;;;;;;;0.00;0.00;;;;;;;;;;1731753;28;20657;-74
2023/05/04 01:30:30;;;;;;;0.10;0.10;;;;;;;;;;1726178;28;20229;-74
2023/05/04 01:31:23;;;;;;;0.00;0.00;;;;;;;;;;1730212;28;20204;-74
2023/05/04 01:32:15;;;;;;;0.00;0.00;;;;;;;;;;1730522;28;20982;-75
2023/05/04 01:33:07;;;;;;;0.00;0.00;;;;;;;;;;1733280;28;20703;-75
2023/05/04 01:33:59;;;;;;;0.10;0.10;;;;;;;;;;1726106;28;20647;-75
2023/05/04 01:34:50;;;;;;;0.00;0.00;;;;;;;;;;1732921;28;20342;-75
2023/05/04 01:35:42;;;;;;;0.00;0.00;;;;;;;;;;1731608;28;20318;-75
2023/05/04 01:36:35;;;;;;;0.13;0.13;;;;;;;;;;1731166;28;20531;-75
2023/05/04 01:37:27;;;;;;;0.08;0.08;;;;;;;;;;1725911;28;20379;-75
2023/05/04 01:38:18;;;;;;;0.00;0.00;;;;;;;;;;1728912;28;20285;-75
2023/05/04 01:39:10;;;;;;;0.05;0.05;;;;;;;;;;1729417;28;20587;-74
2023/05/04 01:40:01;;;;;;;0.10;0.10;;;;;;;;;;1728005;28;20270;-74
2023/05/04 01:40:53;;;;;;;0.00;0.00;;;;;;;;;;1729035;28;20257;-74
2023/05/04 01:41:44;;;;;;;0.10;0.10;;;;;;;;;;1726331;28;20200;-74
2023/05/04 01:42:36;;;;;;;0.00;0.00;;;;;;;;;;1733439;28;20293;-74
2023/05/04 01:43:27;;;;;;;0.10;0.10;;;;;;;;;;1729302;28;20631;-74
2023/05/04 01:44:19;;;;;;;0.08;0.08;;;;;;;;;;1727524;28;20243;-74
2023/05/04 01:45:11;;;;;;;0.00;0.00;;;;;;;;;;1731827;28;20204;-74
2023/05/04 01:46:03;;;;;;;0.00;0.00;;;;;;;;;;1731315;28;20228;-74
2023/05/04 01:46:54;;;;;;;0.00;0.00;;;;;;;;;;1726082;28;20549;-74
2023/05/04 01:47:46;;;;;;;0.00;0.00;;;;;;;;;;1727851;28;20302;-74
2023/05/04 01:48:37;;;;;;;0.10;0.10;;;;;;;;;;1733227;28;20216;-74
2023/05/04 01:49:29;;;;;;;0.00;0.00;;;;;;;;;;1729329;28;20208;-74
2023/05/04 01:50:20;;;;;;;0.00;0.00;;;;;;;;;;1726759;28;20209;-74
2023/05/04 01:51:12;;;;;;;0.00;0.00;;;;;;;;;;1730064;28;20227;-74
2023/05/04 01:52:04;;;;;;;0.10;0.10;;;;;;;;;;1729366;28;20618;-74
2023/05/04 01:52:56;;;;;;;0.00;0.00;;;;;;;;;;1729362;28;20751;-74
2023/05/04 01:53:47;;;;;;;0.10;0.10;;;;;;;;;;1731473;28;20216;-74
2023/05/04 01:54:39;;;;;;;0.00;0.00;;;;;;;;;;1728740;28;20203;-74
2023/05/04 01:55:30;;;;;;;0.10;0.10;;;;;;;;;;1730577;28;20244;-74
2023/05/04 01:56:22;;;;;;;0.10;0.10;;;;;;;;;;1730043;28;20200;-74
2023/05/04 01:57:13;;;;;;;0.00;0.00;;;;;;;;;;1729998;28;20208;-74
2023/05/04 01:58:05;;;;;;;0.10;0.10;;;;;;;;;;1728799;28;20598;-74
2023/05/04 01:58:56;;;;;;;0.08;0.08;;;;;;;;;;1731379;28;20241;-74
2023/05/04 01:59:48;;;;;;;0.00;0.00;;;;;;;;;;1727475;28;20205;-74
2023/05/04 02:00:39;;;;;;;0.10;0.10;;;;;;;;;;1731920;28;20652;-74
2023/05/04 02:01:31;;;;;;;0.00;0.00;;;;;;;;;;1735882;28;20640;-74
2023/05/04 02:02:22;;;;;;;0.00;0.00;;;;;;;;;;1734165;28;20265;-74
2023/05/04 02:03:13;;;;;;;0.00;0.00;;;;;;;;;;1732290;28;20387;-74
2023/05/04 02:04:05;;;;;;;0.05;0.05;;;;;;;;;;1732671;28;20219;-74
2023/05/04 02:04:56;;;;;;;0.40;0.40;;;;;;;;;;1730586;28;20211;-74
2023/05/04 02:05:48;;;;;;;0.00;0.00;;;;;;;;;;1724596;28;20240;-74
2023/05/04 02:06:39;;;;;;;0.00;0.00;;;;;;;;;;1733585;28;20207;-74
2023/05/04 02:07:33;;;;;;;0.10;0.10;;;;;;;;;;1726284;28;20204;-74
2023/05/04 02:08:24;;;;;;;0.00;0.00;;;;;;;;;;1732024;28;20209;-74
2023/05/04 02:09:16;;;;;;;0.00;0.00;;;;;;;;;;1732470;28;20204;-74
2023/05/04 02:10:08;;;;;;;0.10;0.10;;;;;;;;;;1725821;28;20215;-74
2023/05/04 02:10:59;;;;;;;0.03;0.03;;;;;;;;;;1726569;28;20248;-74
2023/05/04 02:11:50;;;;;;;0.10;0.10;;;;;;;;;;1736293;28;20199;-74
2023/05/04 02:12:42;;;;;;;0.08;0.08;;;;;;;;;;1739390;28;20273;-74
2023/05/04 02:13:35;;;;;;;0.10;0.10;;;;;;;;;;1736565;28;20211;-74
2023/05/04 02:14:27;;;;;;;0.00;0.00;;;;;;;;;;1736898;28;20200;-74
2023/05/04 02:15:18;;;;;;;0.13;0.13;;;;;;;;;;1740468;28;20661;-75
2023/05/04 02:16:10;;;;;;;0.10;0.10;;;;;;;;;;1738879;28;20203;-75
2023/05/04 02:17:01;;;;;;;0.00;0.00;;;;;;;;;;1742291;28;20295;-75
2023/05/04 02:17:53;;;;;;;0.00;0.00;;;;;;;;;;1739297;28;20216;-75
2023/05/04 02:18:45;;;;;;;0.10;0.10;;;;;;;;;;1739676;28;20553;-75
2023/05/04 02:19:37;;;;;;;0.00;0.00;;;;;;;;;;1736863;28;20211;-75
2023/05/04 02:20:28;;;;;;;0.00;0.00;;;;;;;;;;1738279;28;20678;-76
2023/05/04 02:21:20;;;;;;;0.10;0.10;;;;;;;;;;1738413;28;20215;-76
2023/05/04 02:22:11;;;;;;;0.00;0.00;;;;;;;;;;1736145;28;20732;-76
2023/05/04 02:23:04;;;;;;;0.00;0.00;;;;;;;;;;1736427;28;20231;-75
2023/05/04 02:23:55;;;;;;;0.00;0.00;;;;;;;;;;1736086;28;20716;-76
2023/05/04 02:24:47;;;;;;;0.00;0.00;;;;;;;;;;1737539;28;20289;-76
2023/05/04 02:25:39;;;;;;;0.20;0.20;;;;;;;;;;1738073;28;20691;-76
2023/05/04 02:26:31;;;;;;;0.00;0.00;;;;;;;;;;1743349;28;20294;-76
2023/05/04 02:27:22;;;;;;;0.03;0.03;;;;;;;;;;1736121;28;20208;-76
2023/05/04 02:28:14;;;;;;;0.00;0.00;;;;;;;;;;1739585;28;20203;-76
2023/05/04 02:29:06;;;;;;;0.00;0.00;;;;;;;;;;1739450;28;20207;-76
2023/05/04 02:29:58;;;;;;;0.00;0.00;;;;;;;;;;1739074;28;20214;-76
2023/05/04 02:30:49;;;;;;;0.00;0.00;;;;;;;;;;1738170;28;20541;-77
2023/05/04 02:31:41;;;;;;;0.10;0.10;;;;;;;;;;1739210;28;20594;-77
2023/05/04 02:32:32;;;;;;;0.00;0.00;;;;;;;;;;1733415;28;20287;-77
2023/05/04 02:33:24;;;;;;;0.10;0.10;;;;;;;;;;1736828;28;20534;-76
2023/05/04 02:34:15;;;;;;;0.10;0.10;;;;;;;;;;1736165;28;20295;-76
2023/05/04 02:35:07;;;;;;;0.10;0.10;;;;;;;;;;1739589;28;20562;-76
2023/05/04 02:35:58;;;;;;;0.10;0.10;;;;;;;;;;1734863;28;20349;-76
2023/05/04 02:36:50;;;;;;;0.00;0.00;;;;;;;;;;1745107;28;20708;-76
2023/05/04 02:37:41;;;;;;;0.00;0.00;;;;;;;;;;1734394;28;20212;-76
2023/05/04 02:38:34;;;;;;;0.10;0.10;;;;;;;;;;1743291;28;20207;-76
2023/05/04 02:39:25;;;;;;;0.00;0.00;;;;;;;;;;1738128;28;20204;-76
2023/05/04 02:40:18;;;;;;;0.00;0.00;;;;;;;;;;1739946;28;20257;-76
2023/05/04 02:41:09;;;;;;;0.00;0.00;;;;;;;;;;1735348;28;20207;-74
2023/05/04 02:42:01;;;;;;;0.17;0.17;;;;;;;;;;1737377;28;20211;-75
2023/05/04 02:42:52;;;;;;;0.00;0.00;;;;;;;;;;1736856;28;20597;-74
2023/05/04 02:43:44;;;;;;;0.10;0.10;;;;;;;;;;1739619;28;20617;-74
2023/05/04 02:44:35;;;;;;;0.10;0.10;;;;;;;;;;1738918;28;20264;-75
2023/05/04 02:45:27;;;;;;;0.00;0.00;;;;;;;;;;1740394;28;20196;-75
2023/05/04 02:46:18;;;;;;;0.10;0.10;;;;;;;;;;1741425;28;20599;-75
2023/05/04 02:47:10;;;;;;;0.00;0.00;;;;;;;;;;1737224;28;20192;-75
2023/05/04 02:48:01;;;;;;;0.10;0.10;;;;;;;;;;1733955;28;20256;-74
2023/05/04 02:48:53;;;;;;;0.00;0.00;;;;;;;;;;1736597;28;20207;-75
2023/05/04 02:49:45;;;;;;;0.00;0.00;;;;;;;;;;1734356;28;20599;-75
2023/05/04 02:50:37;;;;;;;0.00;0.00;;;;;;;;;;1731806;28;20242;-74
2023/05/04 02:51:28;;;;;;;0.00;0.00;;;;;;;;;;1737882;28;20511;-74
2023/05/04 02:52:20;;;;;;;0.10;0.10;;;;;;;;;;1736109;28;20270;-74
2023/05/04 02:53:11;;;;;;;0.03;0.03;;;;;;;;;;1737967;28;20204;-75
2023/05/04 02:54:05;;;;;;;0.00;0.00;;;;;;;;;;1738935;28;20673;-75
2023/05/04 02:54:56;;;;;;;0.10;0.10;;;;;;;;;;1738556;28;20203;-74
2023/05/04 02:55:48;;;;;;;0.10;0.10;;;;;;;;;;1737555;28;20227;-74
2023/05/04 02:56:39;;;;;;;0.10;0.10;;;;;;;;;;1737170;28;20265;-74
2023/05/04 02:57:31;;;;;;;0.08;0.08;;;;;;;;;;1739290;28;20196;-74
2023/05/04 02:58:22;;;;;;;0.10;0.10;;;;;;;;;;1738598;28;20569;-74
2023/05/04 02:59:15;;;;;;;0.00;0.00;;;;;;;;;;1736059;28;20196;-74
2023/05/04 03:00:06;;;;;;;0.10;0.10;;;;;;;;;;1739427;28;20204;-74
2023/05/04 03:00:58;;;;;;;0.00;0.00;;;;;;;;;;1736772;28;20239;-74
2023/05/04 03:01:49;;;;;;;0.10;0.10;;;;;;;;;;1739165;28;20680;-74
2023/05/04 03:02:41;;;;;;;0.08;0.08;;;;;;;;;;1738931;28;20643;-74
2023/05/04 03:03:32;;;;;;;0.00;0.00;;;;;;;;;;1739210;28;20206;-74
2023/05/04 03:04:24;;;;;;;0.10;0.10;;;;;;;;;;1738741;28;20655;-74
2023/05/04 03:05:15;;;;;;;0.05;0.05;;;;;;;;;;1737954;28;20203;-76
2023/05/04 03:06:07;;;;;;;0.13;0.13;;;;;;;;;;1738635;28;20756;-75
2023/05/04 03:06:58;;;;;;;0.15;0.15;;;;;;;;;;1738991;28;20710;-75
2023/05/04 03:07:51;;;;;;;0.00;0.00;;;;;;;;;;1738664;28;20214;-75
2023/05/04 03:08:42;;;;;;;0.03;0.03;;;;;;;;;;1739081;28;20641;-75
2023/05/04 03:09:35;;;;;;;0.10;0.10;;;;;;;;;;1738827;28;20633;-75
2023/05/04 03:10:26;;;;;;;0.00;0.00;;;;;;;;;;1737877;28;20212;-75
2023/05/04 03:11:18;;;;;;;0.10;0.10;;;;;;;;;;1738297;28;20243;-75
2023/05/04 03:12:09;;;;;;;0.10;0.10;;;;;;;;;;1739240;28;20207;-75
2023/05/04 03:13:04;;;;;;;0.10;0.10;;;;;;;;;;1738603;28;20210;-75
2023/05/04 03:13:55;;;;;;;0.10;0.10;;;;;;;;;;1739204;28;20196;-74
2023/05/04 03:14:47;;;;;;;0.00;0.00;;;;;;;;;;1738525;28;20558;-75
2023/05/04 03:15:39;;;;;;;0.05;0.05;;;;;;;;;;1737906;28;20299;-75
2023/05/04 03:16:31;;;;;;;0.10;0.10;;;;;;;;;;1738564;28;20238;-75
2023/05/04 03:17:22;;;;;;;0.00;0.00;;;;;;;;;;1738994;28;20211;-75
2023/05/04 03:18:14;;;;;;;0.32;0.32;;;;;;;;;;1738032;28;20453;-75
2023/05/04 03:19:05;;;;;;;0.10;0.10;;;;;;;;;;1736263;28;20211;-75
2023/05/04 03:19:57;;;;;;;0.00;0.00;;;;;;;;;;1738635;28;20218;-75
2023/05/04 03:20:48;;;;;;;0.10;0.10;;;;;;;;;;1737206;28;20238;-75
2023/05/04 03:21:41;;;;;;;0.15;0.15;;;;;;;;;;1738794;28;20207;-75
2023/05/04 03:22:32;;;;;;;0.03;0.03;;;;;;;;;;1738807;28;20210;-75
2023/05/04 03:23:24;;;;;;;0.10;0.10;;;;;;;;;;1738634;28;20223;-75
2023/05/04 03:24:16;;;;;;;0.00;0.00;;;;;;;;;;1738922;28;20199;-75
2023/05/04 03:25:10;;;;;;;0.10;0.10;;;;;;;;;;1739459;28;20203;-75
2023/05/04 03:26:01;;;;;;;0.10;0.10;;;;;;;;;;1736893;28;20618;-75
2023/05/04 03:26:53;;;;;;;0.20;0.20;;;;;;;;;;1738098;28;20211;-75
2023/05/04 03:27:44;;;;;;;0.10;0.10;;;;;;;;;;1734893;28;20216;-75
2023/05/04 03:28:36;;;;;;;0.00;0.00;;;;;;;;;;1739196;28;20527;-75
2023/05/04 03:29:27;;;;;;;0.05;0.05;;;;;;;;;;1738439;28;20212;-74
2023/05/04 03:30:19;;;;;;;0.10;0.10;;;;;;;;;;1737747;28;20506;-75
2023/05/04 03:31:10;;;;;;;0.10;0.10;;;;;;;;;;1738770;28;20663;-75
2023/05/04 03:32:03;;;;;;;0.10;0.10;;;;;;;;;;1738850;28;20530;-76
2023/05/04 03:32:54;;;;;;;0.10;0.10;;;;;;;;;;1738739;28;20238;-76
2023/05/04 03:33:46;;;;;;;0.00;0.00;;;;;;;;;;1739173;28;20300;-76
2023/05/04 03:34:37;;;;;;;0.20;0.20;;;;;;;;;;1735841;28;20572;-76
2023/05/04 03:35:29;;;;;;;0.10;0.10;;;;;;;;;;1736936;28;20261;-76
2023/05/04 03:36:21;;;;;;;0.10;0.10;;;;;;;;;;1738230;28;20208;-76
2023/05/04 03:37:12;;;;;;;0.20;0.20;;;;;;;;;;1738919;28;20249;-76
2023/05/04 03:38:05;;;;;;;0.10;0.10;;;;;;;;;;1738132;28;20211;-75
2023/05/04 03:38:56;;;;;;;0.13;0.13;;;;;;;;;;1738829;28;20708;-75
2023/05/04 03:39:48;;;;;;;0.10;0.10;;;;;;;;;;1738208;28;20217;-76
2023/05/04 03:40:40;;;;;;;0.00;0.00;;;;;;;;;;1734592;28;20260;-75
2023/05/04 03:41:32;;;;;;;0.20;0.20;;;;;;;;;;1738436;28;20203;-75
2023/05/04 03:42:23;;;;;;;0.13;0.13;;;;;;;;;;1740888;28;20263;-75
2023/05/04 03:43:15;;;;;;;0.30;0.30;;;;;;;;;;1738410;28;20227;-76
2023/05/04 03:44:06;;;;;;;0.20;0.20;;;;;;;;;;1738777;28;20660;-76
2023/05/04 03:44:58;;;;;;;0.10;0.10;;;;;;;;;;1738298;28;20524;-75
2023/05/04 03:45:49;;;;;;;0.10;0.10;;;;;;;;;;1737227;28;20243;-75
2023/05/04 03:46:41;;;;;;;0.00;0.00;;;;;;;;;;1738637;28;20245;-73
2023/05/04 03:47:32;;;;;;;0.20;0.20;;;;;;;;;;1733322;28;20634;-73
2023/05/04 03:48:24;;;;;;;0.05;0.05;;;;;;;;;;1738403;28;20213;-73
2023/05/04 03:49:15;;;;;;;0.10;0.10;;;;;;;;;;1738771;28;20207;-73
2023/05/04 03:50:08;;;;;;;0.00;0.00;;;;;;;;;;1737758;28;20764;-73
2023/05/04 03:50:59;;;;;;;0.20;0.20;;;;;;;;;;1737543;28;20312;-74
2023/05/04 03:51:51;;;;;;;0.00;0.00;;;;;;;;;;1738763;28;20203;-74
2023/05/04 03:52:42;;;;;;;0.10;0.10;;;;;;;;;;1738682;28;20268;-74
2023/05/04 03:53:35;;;;;;;0.10;0.10;;;;;;;;;;1738961;28;20762;-74
2023/05/04 03:54:26;;;;;;;0.20;0.20;;;;;;;;;;1738242;28;20199;-74
2023/05/04 03:55:18;;;;;;;0.10;0.10;;;;;;;;;;1737283;28;20207;-74
2023/05/04 03:56:10;;;;;;;0.10;0.10;;;;;;;;;;1738277;28;20203;-75
2023/05/04 03:57:03;;;;;;;0.10;0.10;;;;;;;;;;1735140;28;20200;-75
2023/05/04 03:57:54;;;;;;;0.17;0.17;;;;;;;;;;1735314;28;20276;-75
2023/05/04 03:58:45;;;;;;;0.00;0.00;;;;;;;;;;1739027;28;20238;-74
2023/05/04 03:59:37;;;;;;;0.10;0.10;;;;;;;;;;1738476;28;20211;-74
2023/05/04 04:00:28;;;;;;;0.10;0.10;;;;;;;;;;1733578;28;20235;-75
2023/05/04 04:01:20;;;;;;;0.30;0.30;;;;;;;;;;1735513;28;20203;-73
2023/05/04 04:02:11;;;;;;;0.10;0.10;;;;;;;;;;1738825;28;20661;-74
2023/05/04 04:03:03;;;;;;;0.10;0.10;;;;;;;;;;1738042;28;20209;-74
2023/05/04 04:03:54;;;;;;;0.10;0.10;;;;;;;;;;1738723;28;20277;-74
2023/05/04 04:04:46;;;;;;;0.10;0.10;;;;;;;;;;1738439;28;20211;-75
2023/05/04 04:05:37;;;;;;;0.10;0.10;;;;;;;;;;1732431;28;20248;-75
2023/05/04 04:06:29;;;;;;;0.10;0.10;;;;;;;;;;1737109;28;20285;-74
2023/05/04 04:07:20;;;;;;;0.20;0.20;;;;;;;;;;1738526;28;20277;-75
2023/05/04 04:08:13;;;;;;;0.10;0.10;;;;;;;;;;1738202;28;20200;-75
2023/05/04 04:09:04;;;;;;;0.10;0.10;;;;;;;;;;1737074;28;20223;-75
2023/05/04 04:09:56;;;;;;;0.10;0.10;;;;;;;;;;1738224;28;20595;-75
2023/05/04 04:10:47;;;;;;;0.10;0.10;;;;;;;;;;1737341;28;20242;-75
2023/05/04 04:11:40;;;;;;;0.10;0.10;;;;;;;;;;1738295;28;20707;-75
2023/05/04 04:12:31;;;;;;;0.10;0.10;;;;;;;;;;1738690;28;20199;-74
2023/05/04 04:13:23;;;;;;;0.00;0.00;;;;;;;;;;1738327;28;20199;-74
2023/05/04 04:14:14;;;;;;;0.10;0.10;;;;;;;;;;1735780;28;20204;-74
2023/05/04 04:15:07;;;;;;;0.10;0.10;;;;;;;;;;1739051;28;20223;-74
2023/05/04 04:15:58;;;;;;;0.08;0.08;;;;;;;;;;1736659;28;20315;-74
2023/05/04 04:16:50;;;;;;;0.17;0.17;;;;;;;;;;1738853;28;20207;-74
2023/05/04 04:17:41;;;;;;;0.10;0.10;;;;;;;;;;1738030;28;20587;-74
2023/05/04 04:18:33;;;;;;;0.00;0.00;;;;;;;;;;1738800;28;20204;-75
2023/05/04 04:19:24;;;;;;;0.00;0.00;;;;;;;;;;1738236;28;20210;-75
2023/05/04 04:20:16;;;;;;;0.15;0.15;;;;;;;;;;1737444;28;20214;-75
2023/05/04 04:21:08;;;;;;;0.00;0.00;;;;;;;;;;1738464;28;20356;-75
2023/05/04 04:22:00;;;;;;;0.10;0.10;;;;;;;;;;1738573;28;20211;-75
2023/05/04 04:22:51;;;;;;;0.00;0.00;;;;;;;;;;1738415;28;20260;-75
2023/05/04 04:23:44;;;;;;;0.15;0.15;;;;;;;;;;1738806;28;20280;-75
2023/05/04 04:24:35;;;;;;;0.10;0.10;;;;;;;;;;1738444;28;20211;-75
2023/05/04 04:25:27;;;;;;;0.10;0.10;;;;;;;;;;1737363;28;20230;-75
2023/05/04 04:26:19;;;;;;;0.00;0.00;;;;;;;;;;1738046;28;20199;-75
2023/05/04 04:27:12;;;;;;;0.00;0.00;;;;;;;;;;1738894;28;20243;-74
2023/05/04 04:28:04;;;;;;;0.10;0.10;;;;;;;;;;1738334;28;20227;-75
2023/05/04 04:28:56;;;;;;;0.00;0.00;;;;;;;;;;1737912;28;20233;-75
2023/05/04 04:29:47;;;;;;;0.00;0.00;;;;;;;;;;1736963;28;20212;-75
2023/05/04 04:30:38;;;;;;;0.10;0.10;;;;;;;;;;1737877;28;20269;-75
2023/05/04 04:31:30;;;;;;;0.10;0.10;;;;;;;;;;1738319;28;20225;-75
2023/05/04 04:32:21;;;;;;;0.00;0.00;;;;;;;;;;1738935;28;20207;-75
2023/05/04 04:33:13;;;;;;;0.13;0.13;;;;;;;;;;1738640;28;20632;-75
2023/05/04 04:34:04;;;;;;;0.00;0.00;;;;;;;;;;1738893;28;20215;-75
2023/05/04 04:34:56;;;;;;;0.10;0.10;;;;;;;;;;1742312;28;20260;-75
2023/05/04 04:35:47;;;;;;;0.25;0.25;;;;;;;;;;1737726;28;20239;-75
2023/05/04 04:36:40;;;;;;;0.10;0.10;;;;;;;;;;1738956;28;20204;-75
2023/05/04 04:37:31;;;;;;;0.10;0.10;;;;;;;;;;1739078;28;20210;-75
2023/05/04 04:38:23;;;;;;;0.05;0.05;;;;;;;;;;1738687;28;20702;-74
2023/05/04 04:39:15;;;;;;;0.00;0.00;;;;;;;;;;1738788;28;20256;-75
2023/05/04 04:40:07;;;;;;;0.10;0.10;;;;;;;;;;1739128;28;20526;-75
2023/05/04 04:40:58;;;;;;;0.20;0.20;;;;;;;;;;1736945;28;20308;-75
2023/05/04 04:41:51;;;;;;;0.10;0.10;;;;;;;;;;1741776;28;20210;-75
2023/05/04 04:42:43;;;;;;;0.10;0.10;;;;;;;;;;1738658;28;20231;-76
2023/05/04 04:43:35;;;;;;;0.10;0.10;;;;;;;;;;1738802;28;20377;-75
2023/05/04 04:44:27;;;;;;;0.00;0.00;;;;;;;;;;1738425;28;20199;-75
2023/05/04 04:45:19;;;;;;;0.00;0.00;;;;;;;;;;1737620;28;20231;-76
2023/05/04 04:46:10;;;;;;;0.00;0.00;;;;;;;;;;1737982;28;20195;-76
2023/05/04 04:47:02;;;;;;;0.00;0.00;;;;;;;;;;1738580;28;20514;-76
2023/05/04 04:47:53;;;;;;;0.10;0.10;;;;;;;;;;1737229;28;20685;-75
2023/05/04 04:48:46;;;;;;;0.10;0.10;;;;;;;;;;1737262;28;20743;-75
2023/05/04 04:49:37;;;;;;;0.00;0.00;;;;;;;;;;1738455;28;20211;-75
2023/05/04 04:50:29;;;;;;;0.00;0.00;;;;;;;;;;1737435;28;20605;-75
2023/05/04 04:51:20;;;;;;;0.10;0.10;;;;;;;;;;1735710;28;20207;-75
2023/05/04 04:52:12;;;;;;;0.10;0.10;;;;;;;;;;1738377;28;20202;-75
2023/05/04 04:53:03;;;;;;;0.10;0.10;;;;;;;;;;1737047;28;20230;-75
2023/05/04 04:53:55;;;;;;;0.20;0.20;;;;;;;;;;1738447;28;20210;-75
2023/05/04 04:54:46;;;;;;;0.00;0.00;;;;;;;;;;1738482;28;20586;-75
2023/05/04 04:55:38;;;;;;;0.00;0.00;;;;;;;;;;1737251;28;20267;-75
2023/05/04 04:56:29;;;;;;;0.00;0.00;;;;;;;;;;1738047;28;20215;-75
2023/05/04 04:57:21;;;;;;;0.10;0.10;;;;;;;;;;1734168;28;20724;-75
2023/05/04 04:58:13;;;;;;;0.00;0.00;;;;;;;;;;1737691;28;20206;-75
2023/05/04 04:59:05;;;;;;;0.20;0.20;;;;;;;;;;1736252;28;20206;-75
2023/05/04 04:59:56;;;;;;;0.10;0.10;;;;;;;;;;1738141;28;20766;-75
2023/05/04 05:00:50;;;;;;;0.00;0.00;;;;;;;;;;1737253;28;20651;-75
2023/05/04 05:01:41;;;;;;;0.00;0.00;;;;;;;;;;1738456;28;20661;-75
2023/05/04 05:02:33;;;;;;;0.08;0.08;;;;;;;;;;1738433;28;20638;-75
2023/05/04 05:03:24;;;;;;;0.00;0.00;;;;;;;;;;1738324;28;20541;-75
2023/05/04 05:04:17;;;;;;;0.10;0.10;;;;;;;;;;1738499;28;20601;-75
2023/05/04 05:05:09;;;;;;;0.00;0.00;;;;;;;;;;1735653;28;20207;-75
2023/05/04 05:06:02;;;;;;;0.00;0.00;;;;;;;;;;1731897;28;20305;-75
2023/05/04 05:06:53;;;;;;;0.00;0.00;;;;;;;;;;1741252;28;20570;-75
2023/05/04 05:07:46;;;;;;;0.10;0.10;;;;;;;;;;1738185;28;20775;-75
2023/05/04 05:08:37;;;;;;;0.10;0.10;;;;;;;;;;1735698;28;20295;-75
2023/05/04 05:09:29;;;;;;;0.05;0.05;;;;;;;;;;1737983;28;20199;-76
2023/05/04 05:10:20;;;;;;;0.20;0.20;;;;;;;;;;1737259;28;20207;-76
2023/05/04 05:11:12;;;;;;;0.10;0.10;;;;;;;;;;1738009;28;20230;-76